Time;durP1;ratioP1;P1;durP2;ratioP2;P2;SDS_P1;SDS_P2;PMS_P1;PMS_P2;Temp;Humidity;BMP_temperature;BMP_pressure;BME280_temperature;BME280_humidity;BME280_pressure;Samples;Min_cycle;Max_cycle;Signal;HPM_P1;HPM_P2
2022/11/16 00:01:07;;;;;;;29.60;17.15;;;10.10;99.90;;;;;;4996871;28;20033;-41
2022/11/16 00:03:33;;;;;;;25.35;16.65;;;10.10;99.90;;;;;;4996858;28;20272;-42
2022/11/16 00:06:01;;;;;;;30.88;19.02;;;10.10;99.90;;;;;;4996091;28;20054;-42
2022/11/16 00:08:29;;;;;;;28.45;17.52;;;10.10;99.90;;;;;;4995820;28;20044;-41
2022/11/16 00:11:02;;;;;;;28.35;17.38;;;10.00;99.90;;;;;;4996078;28;20061;-40
2022/11/16 00:13:30;;;;;;;31.75;19.13;;;10.00;99.90;;;;;;4995223;28;20018;-40
2022/11/16 00:15:56;;;;;;;28.85;17.20;;;10.00;99.90;;;;;;4995840;28;20106;-40
2022/11/16 00:18:22;;;;;;;29.63;17.40;;;10.00;99.90;;;;;;4988377;28;20117;-40
2022/11/16 00:20:49;;;;;;;28.27;16.88;;;10.00;99.90;;;;;;4999758;28;20497;-40
2022/11/16 00:23:15;;;;;;;30.20;19.13;;;9.90;99.90;;;;;;5000525;28;20491;-41
2022/11/16 00:25:40;;;;;;;33.50;18.98;;;9.90;99.90;;;;;;4995867;28;20022;-40
2022/11/16 00:28:06;;;;;;;29.65;18.50;;;9.90;99.90;;;;;;4995541;28;20014;-40
2022/11/16 00:30:32;;;;;;;28.70;18.83;;;9.90;99.90;;;;;;4995625;28;20018;-41
2022/11/16 00:33:05;;;;;;;32.08;18.63;;;9.90;99.90;;;;;;4993490;28;20014;-41
2022/11/16 00:35:30;;;;;;;32.45;18.60;;;9.90;99.90;;;;;;4993491;28;20079;-41
2022/11/16 00:37:56;;;;;;;27.90;17.63;;;9.90;99.90;;;;;;4996829;28;20112;-41
2022/11/16 00:40:23;;;;;;;30.83;18.27;;;9.80;99.90;;;;;;4995641;28;20070;-40
2022/11/16 00:42:48;;;;;;;32.85;20.75;;;9.90;99.90;;;;;;4994511;28;20029;-40
2022/11/16 00:45:14;;;;;;;30.10;18.65;;;9.90;99.90;;;;;;4996489;28;20030;-41
2022/11/16 00:47:39;;;;;;;31.98;18.90;;;9.90;99.90;;;;;;4997056;28;20375;-41
2022/11/16 00:50:05;;;;;;;33.13;18.95;;;9.90;99.90;;;;;;5005954;28;20022;-40
2022/11/16 00:52:31;;;;;;;32.30;19.42;;;9.90;99.90;;;;;;4994117;28;20030;-40
2022/11/16 00:54:57;;;;;;;29.92;18.73;;;9.90;99.90;;;;;;4993538;28;20530;-40
2022/11/16 00:57:23;;;;;;;26.63;17.05;;;9.90;99.90;;;;;;4995628;28;20121;-40
2022/11/16 00:59:49;;;;;;;28.88;18.00;;;9.90;99.90;;;;;;4996257;28;20023;-41
2022/11/16 01:02:14;;;;;;;29.30;18.23;;;9.80;99.90;;;;;;4993761;28;20105;-40
2022/11/16 01:04:40;;;;;;;28.70;18.95;;;9.90;99.90;;;;;;4996031;28;20030;-41
2022/11/16 01:07:06;;;;;;;30.33;17.85;;;9.80;99.90;;;;;;4995645;28;20486;-40
2022/11/16 01:09:32;;;;;;;29.50;18.08;;;9.80;99.90;;;;;;4993063;28;20356;-41
2022/11/16 01:12:09;;;;;;;28.80;16.83;;;9.80;99.90;;;;;;4994107;28;20018;-40
2022/11/16 01:14:40;;;;;;;27.88;16.52;;;9.80;99.90;;;;;;4999083;28;20022;-41
2022/11/16 01:17:07;;;;;;;29.63;18.25;;;9.70;99.90;;;;;;4997972;28;20018;-41
2022/11/16 01:19:33;;;;;;;31.60;17.50;;;9.70;99.90;;;;;;5005353;28;20034;-41
2022/11/16 01:21:59;;;;;;;27.85;15.88;;;9.70;99.90;;;;;;5004726;28;20024;-40
2022/11/16 01:24:26;;;;;;;26.50;17.30;;;9.60;99.90;;;;;;4997572;28;20057;-40
2022/11/16 01:26:55;;;;;;;26.25;16.17;;;9.60;99.90;;;;;;4996023;28;20061;-41
2022/11/16 01:29:23;;;;;;;27.17;16.45;;;9.60;99.90;;;;;;4998756;28;20211;-41
2022/11/16 01:31:49;;;;;;;26.20;16.38;;;9.60;99.90;;;;;;4998635;28;20479;-41
2022/11/16 01:34:14;;;;;;;25.27;15.95;;;9.60;99.90;;;;;;4996795;28;20033;-40
2022/11/16 01:36:40;;;;;;;27.25;16.23;;;9.60;99.90;;;;;;4999008;28;20487;-40
2022/11/16 01:39:06;;;;;;;25.88;15.90;;;9.50;99.90;;;;;;4998599;28;20164;-41
2022/11/16 01:41:32;;;;;;;28.77;16.60;;;9.50;99.90;;;;;;4995458;28;20149;-41
2022/11/16 01:43:59;;;;;;;26.83;16.85;;;9.50;99.90;;;;;;4997881;28;20029;-41
2022/11/16 01:46:26;;;;;;;27.67;15.18;;;9.50;99.90;;;;;;4997952;28;20534;-40
2022/11/16 01:49:15;;;;;;;26.83;16.10;;;9.40;99.90;;;;;;5001740;28;20117;-40
2022/11/16 01:51:45;;;;;;;26.95;16.23;;;9.40;99.90;;;;;;4997975;28;20014;-40
2022/11/16 01:54:12;;;;;;;23.73;15.65;;;9.40;99.90;;;;;;4999258;28;21257;-41
2022/11/16 01:56:41;;;;;;;25.15;15.80;;;9.40;99.90;;;;;;4997228;28;20034;-40
2022/11/16 01:59:07;;;;;;;22.92;14.75;;;9.40;99.90;;;;;;4996623;28;20018;-41
2022/11/16 02:01:33;;;;;;;21.35;14.25;;;9.30;99.90;;;;;;4988694;28;20054;-41
2022/11/16 02:03:59;;;;;;;24.45;14.73;;;9.30;99.90;;;;;;4996982;28;20054;-40
2022/11/16 02:06:44;;;;;;;23.48;14.60;;;9.30;99.90;;;;;;4998099;28;20475;-41
2022/11/16 02:12:49;;;;;;;21.67;14.60;;;9.30;99.90;;;;;;4998440;28;20251;-41
2022/11/16 02:15:25;;;;;;;24.13;14.80;;;9.30;99.90;;;;;;4997929;28;20030;-39
2022/11/16 02:18:20;;;;;;;23.45;15.32;;;9.20;99.90;;;;;;5000937;28;20026;-39
2022/11/16 02:20:51;;;;;;;24.95;15.52;;;9.20;99.90;;;;;;5002321;28;20109;-40
2022/11/16 02:23:42;;;;;;;22.60;14.88;;;9.20;99.90;;;;;;5003212;28;20033;-41
2022/11/16 02:26:35;;;;;;;28.55;14.82;;;9.20;99.90;;;;;;4997942;28;20030;-40
2022/11/16 02:29:29;;;;;;;23.92;14.98;;;9.20;99.90;;;;;;4997333;28;20026;-40
2022/11/16 02:32:10;;;;;;;26.65;15.30;;;9.10;99.90;;;;;;4997630;28;20109;-40
2022/11/16 02:34:38;;;;;;;;;;;9.10;99.90;;;;;;4996993;28;20049;-40
2022/11/16 02:37:08;;;;;;;26.40;15.60;;;9.10;99.90;;;;;;4997515;28;19905;-40
2022/11/16 02:39:36;;;;;;;27.17;16.65;;;9.10;99.90;;;;;;4998716;28;20022;-41
2022/11/16 02:42:07;;;;;;;29.30;17.17;;;9.00;99.90;;;;;;4995526;28;20023;-39
2022/11/16 02:44:35;;;;;;;25.25;15.55;;;9.00;99.90;;;;;;4996079;28;20392;-40
2022/11/16 02:47:10;;;;;;;24.52;16.63;;;9.00;99.90;;;;;;4981467;28;20029;-40
2022/11/16 02:49:39;;;;;;;28.17;19.40;;;9.00;99.90;;;;;;5005854;28;20022;-41
2022/11/16 02:52:05;;;;;;;28.10;17.15;;;9.00;99.90;;;;;;4997153;28;20479;-41
2022/11/16 02:54:30;;;;;;;26.98;17.42;;;9.00;99.90;;;;;;4996338;28;20026;-41
2022/11/16 02:57:02;;;;;;;32.08;18.30;;;8.90;99.90;;;;;;4996167;28;20023;-40
2022/11/16 02:59:41;;;;;;;26.30;16.90;;;8.90;99.90;;;;;;4995889;28;20356;-40
2022/11/16 03:02:37;;;;;;;29.77;18.92;;;8.90;99.90;;;;;;5012204;28;20061;-40
2022/11/16 03:05:32;;;;;;;30.98;19.67;;;8.90;99.90;;;;;;4991590;28;20112;-41
2022/11/16 03:08:10;;;;;;;31.20;19.85;;;8.80;99.90;;;;;;4996052;28;20019;-41
2022/11/16 03:13:27;;;;;;;31.38;19.08;;;8.80;99.90;;;;;;4996417;28;20540;-41
2022/11/16 03:15:55;;;;;;;29.15;20.17;;;8.70;99.90;;;;;;4994573;28;20046;-41
2022/11/16 03:18:28;;;;;;;36.15;20.40;;;8.60;99.90;;;;;;5003844;28;20034;-40
2022/11/16 03:21:25;;;;;;;37.00;21.08;;;8.60;99.90;;;;;;5001132;28;20398;-41
2022/11/16 03:23:50;;;;;;;35.20;21.70;;;8.60;99.90;;;;;;4999644;28;20034;-40
2022/11/16 03:26:25;;;;;;;39.42;22.30;;;8.60;99.90;;;;;;4995782;28;20022;-40
2022/11/16 03:29:03;;;;;;;48.58;24.08;;;8.60;99.90;;;;;;4994971;28;20018;-41
2022/11/16 03:31:42;;;;;;;30.77;20.83;;;8.60;99.90;;;;;;4995791;28;20018;-40
2022/11/16 03:34:15;;;;;;;38.30;24.45;;;8.60;99.90;;;;;;4996830;28;20446;-40
2022/11/16 03:36:43;;;;;;;38.50;23.73;;;8.60;99.90;;;;;;4995577;28;20019;-41
2022/11/16 03:39:20;;;;;;;42.80;24.25;;;8.50;99.90;;;;;;4996440;28;20029;-40
2022/11/16 03:41:47;;;;;;;36.88;23.60;;;8.50;99.90;;;;;;4993779;28;20068;-40
2022/11/16 03:44:14;;;;;;;42.80;25.60;;;8.50;99.90;;;;;;4992884;28;20104;-41
2022/11/16 03:46:42;;;;;;;39.63;23.42;;;8.50;99.90;;;;;;4992374;28;20113;-40
2022/11/16 03:49:07;;;;;;;42.70;25.63;;;8.40;99.90;;;;;;5000510;28;20040;-40
2022/11/16 03:51:33;;;;;;;38.05;22.85;;;8.30;99.90;;;;;;4998495;28;20067;-40
2022/11/16 03:53:58;;;;;;;34.75;21.73;;;8.30;99.90;;;;;;4995140;28;20068;-39
2022/11/16 03:56:24;;;;;;;43.13;23.75;;;8.30;99.90;;;;;;4996724;28;20026;-40
2022/11/16 03:58:49;;;;;;;40.85;24.90;;;8.30;99.90;;;;;;4997964;28;21029;-40
2022/11/16 04:01:15;;;;;;;36.63;23.25;;;8.30;99.90;;;;;;4988239;28;20030;-40
2022/11/16 04:03:40;;;;;;;42.92;26.00;;;8.30;99.90;;;;;;5001336;28;20046;-40
2022/11/16 04:25:39;;;;;;;50.72;27.77;;;8.20;99.90;;;;;;4996810;28;20049;-40
2022/11/16 04:28:15;;;;;;;47.65;27.17;;;8.20;99.90;;;;;;4996001;28;20022;-40
2022/11/16 04:39:08;;;;;;;49.35;26.88;;;8.00;99.90;;;;;;4995960;28;20075;-40
2022/11/16 04:44:18;;;;;;;44.83;26.13;;;8.00;99.90;;;;;;4995049;28;20045;-40
2022/11/16 04:49:29;;;;;;;44.05;25.35;;;8.00;99.90;;;;;;5006815;28;20166;-40
2022/11/16 04:51:54;;;;;;;47.55;26.48;;;8.00;99.90;;;;;;5003255;28;20101;-40
2022/11/16 04:54:20;;;;;;;41.42;25.90;;;7.90;99.90;;;;;;4997855;28;20022;-40
2022/11/16 04:56:45;;;;;;;46.55;27.15;;;8.00;99.90;;;;;;4999300;28;20025;-40
2022/11/16 04:59:11;;;;;;;40.55;25.00;;;7.90;99.90;;;;;;4999393;28;20483;-40
2022/11/16 05:04:21;;;;;;;46.22;26.38;;;7.90;99.90;;;;;;5000726;28;20029;-46
2022/11/16 05:06:46;;;;;;;42.25;25.63;;;7.90;99.90;;;;;;5001782;28;20030;-45
2022/11/16 05:09:12;;;;;;;46.22;26.75;;;7.90;99.90;;;;;;4995918;28;20317;-44
2022/11/16 05:11:38;;;;;;;43.65;26.02;;;7.90;99.90;;;;;;4998024;28;20026;-45
2022/11/16 05:14:04;;;;;;;40.60;25.45;;;7.90;99.90;;;;;;4998373;28;20105;-46
2022/11/16 05:16:31;;;;;;;44.17;25.95;;;7.90;99.90;;;;;;4997604;28;20474;-45
2022/11/16 05:21:40;;;;;;;44.55;24.80;;;7.80;99.90;;;;;;5011439;28;20032;-45
2022/11/16 05:26:49;;;;;;;42.20;25.65;;;7.90;99.90;;;;;;4998944;28;20034;-48
2022/11/16 05:29:15;;;;;;;39.90;24.58;;;7.80;99.90;;;;;;4997301;28;20030;-45
2022/11/16 05:31:40;;;;;;;43.60;24.67;;;7.80;99.90;;;;;;4997256;28;20071;-44
2022/11/16 05:34:07;;;;;;;46.53;25.73;;;7.80;99.90;;;;;;5004899;28;20022;-45
2022/11/16 05:36:32;;;;;;;38.95;24.85;;;7.80;99.90;;;;;;5008641;28;20022;-46
2022/11/16 05:38:58;;;;;;;40.80;24.60;;;7.70;99.90;;;;;;5002579;28;20030;-46
2022/11/16 05:41:23;;;;;;;43.88;25.63;;;7.70;99.90;;;;;;4997133;28;20027;-44
2022/11/16 05:43:49;;;;;;;40.13;25.15;;;7.70;99.90;;;;;;4999883;28;20115;-46
2022/11/16 05:46:14;;;;;;;43.33;25.33;;;7.70;99.90;;;;;;4997763;28;20439;-45
2022/11/16 05:48:39;;;;;;;41.92;23.92;;;7.70;99.90;;;;;;4997318;28;20201;-45
2022/11/16 05:51:05;;;;;;;40.38;24.40;;;7.70;99.90;;;;;;4999974;28;20023;-46
2022/11/16 05:53:30;;;;;;;38.13;24.42;;;7.60;99.90;;;;;;4988409;28;20030;-45
2022/11/16 05:55:56;;;;;;;42.72;25.52;;;7.60;99.90;;;;;;4988957;28;20037;-45
2022/11/16 05:58:21;;;;;;;42.90;24.70;;;7.60;99.90;;;;;;4988838;28;20408;-45
2022/11/16 06:00:47;;;;;;;44.38;25.30;;;7.60;99.90;;;;;;4988017;28;20033;-45
2022/11/16 06:03:13;;;;;;;43.17;25.38;;;7.60;99.90;;;;;;5001332;28;20026;-44
2022/11/16 06:05:38;;;;;;;39.78;24.60;;;7.60;99.90;;;;;;4996374;28;20414;-44
2022/11/16 06:08:04;;;;;;;41.10;24.70;;;7.60;99.90;;;;;;5007434;28;20018;-44
2022/11/16 06:10:30;;;;;;;41.47;23.05;;;7.60;99.90;;;;;;5007816;28;20337;-44
2022/11/16 06:12:56;;;;;;;43.08;23.90;;;7.60;99.90;;;;;;5007070;28;20566;-44
2022/11/16 06:15:21;;;;;;;45.05;26.30;;;7.60;99.90;;;;;;5006892;28;20033;-47
2022/11/16 06:17:47;;;;;;;43.70;26.60;;;7.50;99.90;;;;;;4996972;28;20026;-45
2022/11/16 06:20:13;;;;;;;43.90;25.77;;;7.60;99.90;;;;;;5056782;28;20395;-44
2022/11/16 06:22:38;;;;;;;46.22;26.77;;;7.60;99.90;;;;;;5016700;28;20030;-45
2022/11/16 06:25:07;;;;;;;48.08;27.23;;;7.60;99.90;;;;;;5007296;28;20033;-44
2022/11/16 06:27:32;;;;;;;48.30;27.67;;;7.50;99.90;;;;;;5007509;28;20410;-44
2022/11/16 06:29:59;;;;;;;44.60;25.88;;;7.50;99.90;;;;;;5007889;28;20022;-44
2022/11/16 06:32:25;;;;;;;41.70;26.55;;;7.50;99.90;;;;;;5006785;28;20025;-45
2022/11/16 06:34:50;;;;;;;41.40;25.52;;;7.50;99.90;;;;;;5007465;28;20026;-45
2022/11/16 06:37:16;;;;;;;44.00;26.20;;;7.50;99.90;;;;;;5007470;28;20410;-45
2022/11/16 06:39:41;;;;;;;40.90;24.45;;;7.50;99.90;;;;;;5007399;28;20018;-45
2022/11/16 06:42:07;;;;;;;39.22;24.05;;;7.50;99.90;;;;;;4990947;28;20026;-45
2022/11/16 06:44:32;;;;;;;40.10;24.77;;;7.50;99.90;;;;;;4988586;28;20383;-44
2022/11/16 06:46:58;;;;;;;43.70;24.42;;;7.50;99.90;;;;;;4987634;28;20022;-45
2022/11/16 06:49:23;;;;;;;38.75;24.15;;;7.50;99.90;;;;;;5061285;28;20415;-44
2022/11/16 06:51:49;;;;;;;41.53;24.80;;;7.50;99.90;;;;;;5108343;28;20024;-44
2022/11/16 06:54:14;;;;;;;42.63;23.98;;;7.50;99.90;;;;;;5110217;28;20028;-45
2022/11/16 06:56:40;;;;;;;41.42;24.20;;;7.50;99.90;;;;;;5108898;28;20020;-44
2022/11/16 06:59:05;;;;;;;37.35;23.27;;;7.50;99.90;;;;;;5108844;28;20024;-45
2022/11/16 07:01:31;;;;;;;40.10;23.65;;;7.50;99.90;;;;;;5108634;28;20019;-44
2022/11/16 07:03:56;;;;;;;44.35;23.95;;;7.50;99.90;;;;;;5000984;28;20018;-45
2022/11/16 07:06:22;;;;;;;39.45;22.17;;;7.50;99.90;;;;;;4999383;28;20029;-45
2022/11/16 07:08:47;;;;;;;35.78;22.92;;;7.50;99.90;;;;;;5004577;28;20030;-45
2022/11/16 07:11:13;;;;;;;40.65;23.27;;;7.60;99.90;;;;;;5004606;28;20105;-44
2022/11/16 07:13:39;;;;;;;39.92;23.38;;;7.50;99.90;;;;;;5006256;28;20048;-45
2022/11/16 07:16:09;;;;;;;38.88;23.55;;;7.50;99.90;;;;;;5006202;28;20034;-44
2022/11/16 07:18:40;;;;;;;40.08;24.85;;;7.50;99.90;;;;;;5004250;28;20029;-44
2022/11/16 07:21:10;;;;;;;39.70;23.73;;;7.50;99.90;;;;;;5060624;28;20037;-45
2022/11/16 07:23:36;;;;;;;;;;;7.60;99.90;;;;;;5007770;28;20057;-44
2022/11/16 07:26:04;;;;;;;41.88;23.42;;;7.60;99.90;;;;;;5006161;28;20000;-44
2022/11/16 07:28:29;;;;;;;39.72;22.67;;;7.60;99.90;;;;;;5006351;28;20026;-44
2022/11/16 07:31:03;;;;;;;42.17;25.75;;;7.60;99.90;;;;;;5007112;28;20109;-45
2022/11/16 07:33:30;;;;;;;43.45;23.83;;;7.60;99.90;;;;;;5005884;28;20030;-44
2022/11/16 07:36:10;;;;;;;42.63;25.40;;;7.50;99.90;;;;;;5005420;28;20073;-44
2022/11/16 07:38:36;;;;;;;;;;;7.50;99.90;;;;;;5007299;28;20110;-44
2022/11/16 07:41:04;;;;;;;40.30;22.92;;;7.50;99.90;;;;;;5005567;28;19998;-49
2022/11/16 07:43:31;;;;;;;45.05;26.00;;;7.50;99.90;;;;;;5002802;28;20087;-44
2022/11/16 07:46:04;;;;;;;41.60;23.92;;;7.50;99.90;;;;;;5004739;28;20025;-44
2022/11/16 07:48:33;;;;;;;42.95;25.42;;;7.40;99.90;;;;;;5021621;28;20027;-44
2022/11/16 07:51:01;;;;;;;40.88;24.13;;;7.40;99.90;;;;;;5108312;28;20058;-46
2022/11/16 07:53:26;;;;;;;43.17;24.15;;;7.50;99.90;;;;;;5108235;28;20023;-45
2022/11/16 07:55:53;;;;;;;44.10;25.15;;;7.50;99.90;;;;;;5108647;28;20020;-44
2022/11/16 07:58:20;;;;;;;40.17;23.75;;;7.50;99.90;;;;;;5108417;28;20140;-45
2022/11/16 08:00:46;;;;;;;41.97;25.30;;;7.60;99.90;;;;;;5108450;28;20023;-44
2022/11/16 08:03:12;;;;;;;45.58;25.02;;;7.60;99.90;;;;;;5033248;28;20030;-44
2022/11/16 08:05:38;;;;;;;41.55;24.92;;;7.50;99.90;;;;;;5005271;28;20255;-44
2022/11/16 08:08:04;;;;;;;41.30;24.88;;;7.60;99.90;;;;;;5003887;28;20126;-44
2022/11/16 08:10:30;;;;;;;44.92;26.00;;;7.50;99.90;;;;;;5003812;28;20498;-44
2022/11/16 08:12:55;;;;;;;48.00;26.30;;;7.60;99.90;;;;;;5004878;28;20044;-45
2022/11/16 08:15:21;;;;;;;49.88;27.88;;;7.60;99.90;;;;;;5005769;28;20041;-44
2022/11/16 08:17:50;;;;;;;51.50;27.58;;;7.60;99.90;;;;;;4996785;28;20038;-44
2022/11/16 08:20:16;;;;;;;48.30;27.98;;;7.60;99.90;;;;;;5000265;28;20046;-44
2022/11/16 08:22:42;;;;;;;53.63;27.05;;;7.60;99.90;;;;;;5054396;28;20020;-39
2022/11/16 08:25:12;;;;;;;50.33;26.17;;;7.60;99.90;;;;;;5047725;28;20021;-40
2022/11/16 08:27:38;;;;;;;49.53;27.23;;;7.60;99.90;;;;;;5004113;28;20018;-39
2022/11/16 08:30:08;;;;;;;45.15;26.13;;;7.70;99.90;;;;;;5004390;28;20033;-40
2022/11/16 08:32:35;;;;;;;48.70;26.83;;;7.70;99.90;;;;;;5005099;28;20022;-39
2022/11/16 08:35:00;;;;;;;50.65;27.23;;;7.70;99.90;;;;;;5005422;28;20681;-40
2022/11/16 08:37:27;;;;;;;53.17;28.13;;;7.60;99.90;;;;;;4987533;28;20030;-40
2022/11/16 08:39:53;;;;;;;53.70;27.70;;;7.60;99.90;;;;;;5037295;28;20029;-40
2022/11/16 08:42:19;;;;;;;47.70;28.45;;;7.60;99.90;;;;;;5006428;28;20040;-39
2022/11/16 08:44:44;;;;;;;53.13;28.10;;;7.70;99.90;;;;;;5005652;28;20033;-39
2022/11/16 08:47:10;;;;;;;49.20;26.40;;;7.70;99.90;;;;;;5006072;28;20034;-39
2022/11/16 08:49:35;;;;;;;49.42;27.48;;;7.70;99.90;;;;;;5074215;28;20020;-39
2022/11/16 08:52:01;;;;;;;46.50;26.30;;;7.70;99.90;;;;;;5109327;28;20034;-39
2022/11/16 08:54:29;;;;;;;51.45;27.25;;;7.70;99.90;;;;;;5109498;28;20028;-39
2022/11/16 08:56:55;;;;;;;54.17;27.23;;;7.70;99.90;;;;;;5109846;28;20023;-39
2022/11/16 08:59:20;;;;;;;47.38;27.27;;;7.70;99.90;;;;;;5109580;28;20020;-39
2022/11/16 09:01:46;;;;;;;49.47;26.70;;;7.70;99.90;;;;;;5098823;28;20046;-39
2022/11/16 09:04:12;;;;;;;53.20;27.83;;;7.70;99.90;;;;;;5006331;28;20044;-39
2022/11/16 09:06:37;;;;;;;47.75;25.38;;;7.70;99.90;;;;;;5006774;28;20022;-39
2022/11/16 09:09:03;;;;;;;52.92;26.33;;;7.70;99.90;;;;;;5006640;28;20454;-39
2022/11/16 09:11:29;;;;;;;56.28;26.83;;;7.70;99.90;;;;;;5004233;28;20026;-39
2022/11/16 09:13:55;;;;;;;47.13;25.23;;;7.80;99.90;;;;;;5004590;28;20022;-39
2022/11/16 09:16:21;;;;;;;51.85;27.42;;;7.60;99.90;;;;;;5006218;28;20014;-39
2022/11/16 09:18:48;;;;;;;49.72;26.65;;;7.60;99.90;;;;;;5006605;28;20426;-39
2022/11/16 09:21:22;;;;;;;103.55;53.28;;;7.70;99.90;;;;;;5060434;28;20029;-39
2022/11/16 09:23:47;;;;;;;142.68;78.72;;;7.80;99.90;;;;;;5006124;28;20057;-39
2022/11/16 09:26:13;;;;;;;48.95;26.60;;;7.80;99.90;;;;;;4994634;28;20058;-39
2022/11/16 09:28:39;;;;;;;50.67;26.45;;;7.80;99.90;;;;;;4984682;28;20026;-39
2022/11/16 09:31:05;;;;;;;55.38;28.02;;;7.80;99.90;;;;;;4985945;28;20113;-39
2022/11/16 09:33:34;;;;;;;51.60;27.38;;;7.80;99.90;;;;;;5000929;28;20041;-39
2022/11/16 09:36:08;;;;;;;55.95;26.77;;;7.70;99.90;;;;;;5006680;28;20037;-39
2022/11/16 09:38:46;;;;;;;54.78;28.02;;;7.60;99.90;;;;;;5007522;28;20034;-39
2022/11/16 09:41:14;;;;;;;51.70;25.20;;;7.60;99.90;;;;;;5008564;28;20026;-41
2022/11/16 09:44:10;;;;;;;51.90;26.15;;;7.60;99.90;;;;;;5008696;28;20366;-39
2022/11/16 09:46:41;;;;;;;57.90;27.13;;;7.70;99.90;;;;;;5008875;28;20030;-40
2022/11/16 09:49:24;;;;;;;51.95;27.15;;;7.70;99.90;;;;;;5051689;28;20048;-41
2022/11/16 09:51:54;;;;;;;52.83;26.92;;;7.70;99.90;;;;;;5003992;28;20026;-45
2022/11/16 09:54:24;;;;;;;53.58;27.98;;;7.70;99.90;;;;;;5005844;28;20026;-41
2022/11/16 09:56:52;;;;;;;;;;;7.80;99.90;;;;;;5006876;28;20026;-40
2022/11/16 09:59:24;;;;;;;171.45;92.47;;;7.70;99.90;;;;;;5006916;28;19905;-39
2022/11/16 10:02:01;;;;;;;54.63;27.02;;;7.70;99.90;;;;;;5008107;28;20867;-40
2022/11/16 10:05:02;;;;;;;58.25;27.52;;;7.70;99.90;;;;;;5001099;28;20026;-39
2022/11/16 10:07:47;;;;;;;51.53;26.85;;;7.70;99.90;;;;;;5008797;28;20588;-40
2022/11/16 10:10:37;;;;;;;51.75;25.85;;;7.70;99.90;;;;;;5008865;28;20055;-39
2022/11/16 10:13:09;;;;;;;58.55;26.83;;;7.60;99.90;;;;;;5019540;28;20030;-40
2022/11/16 10:16:00;;;;;;;52.30;26.38;;;7.50;99.90;;;;;;5013665;28;20029;-39
2022/11/16 10:19:04;;;;;;;53.88;26.92;;;7.60;99.90;;;;;;5057003;28;20041;-39
2022/11/16 10:22:00;;;;;;;51.17;26.15;;;7.60;99.90;;;;;;5013188;28;20045;-39
2022/11/16 10:24:34;;;;;;;54.33;26.73;;;7.50;99.90;;;;;;5067315;28;20416;-39
2022/11/16 10:27:03;;;;;;;50.08;25.35;;;7.50;99.90;;;;;;5108906;28;20020;-39
2022/11/16 10:30:00;;;;;;;60.08;28.73;;;7.60;99.90;;;;;;5110355;28;20020;-39
2022/11/16 10:32:29;;;;;;;60.83;28.38;;;7.60;99.90;;;;;;5070748;28;20030;-39
2022/11/16 10:35:11;;;;;;;55.85;27.33;;;7.60;99.90;;;;;;5005847;28;20025;-39
2022/11/16 10:37:48;;;;;;;58.70;27.80;;;7.70;99.90;;;;;;5006331;28;20022;-40
2022/11/16 10:40:32;;;;;;;57.50;29.80;;;7.70;99.90;;;;;;5006585;28;20057;-39
2022/11/16 10:43:09;;;;;;;54.63;27.38;;;7.80;99.90;;;;;;5006459;28;20076;-40
2022/11/16 10:45:42;;;;;;;53.47;28.13;;;7.80;99.90;;;;;;5006326;28;20062;-40
2022/11/16 10:48:16;;;;;;;50.05;27.13;;;7.80;99.90;;;;;;5006787;28;20514;-39
2022/11/16 10:50:46;;;;;;;55.63;27.05;;;7.80;99.90;;;;;;5109905;28;20016;-39
2022/11/16 10:53:28;;;;;;;54.75;27.08;;;7.90;99.90;;;;;;5012717;28;20030;-39
2022/11/16 10:56:18;;;;;;;51.38;26.98;;;7.90;99.90;;;;;;5001479;28;20611;-39
2022/11/16 10:59:04;;;;;;;55.28;27.05;;;7.90;99.90;;;;;;5005694;28;20495;-42
2022/11/16 11:01:35;;;;;;;83.28;47.38;;;7.90;99.90;;;;;;5005930;28;20491;-40
2022/11/16 11:04:12;;;;;;;;;;;7.90;99.90;;;;;;5002794;28;20018;-39
2022/11/16 11:06:39;;;;;;;52.25;27.58;;;8.00;99.90;;;;;;5006243;28;19909;-40
2022/11/16 11:09:37;;;;;;;49.03;26.15;;;8.00;99.90;;;;;;5006227;28;20464;-39
2022/11/16 11:15:17;;;;;;;48.63;25.35;;;8.10;99.90;;;;;;5005677;28;20121;-40
2022/11/16 11:17:46;;;;;;;54.67;27.50;;;8.10;99.90;;;;;;5002465;28;20061;-40
2022/11/16 11:20:14;;;;;;;50.67;27.13;;;8.10;99.90;;;;;;5056911;28;20070;-39
2022/11/16 11:23:14;;;;;;;54.30;27.33;;;8.10;99.90;;;;;;5013707;28;20302;-40
2022/11/16 11:25:48;;;;;;;51.30;26.25;;;8.10;99.90;;;;;;4998365;28;20034;-39
2022/11/16 11:28:27;;;;;;;53.25;28.58;;;8.20;99.90;;;;;;5006599;28;20408;-39
2022/11/16 11:30:54;;;;;;;49.35;26.65;;;8.10;99.90;;;;;;5006299;28;20060;-39
2022/11/16 11:33:22;;;;;;;49.90;26.92;;;8.10;99.90;;;;;;5003948;28;20018;-40
2022/11/16 11:36:19;;;;;;;54.55;27.83;;;8.00;99.90;;;;;;5005180;28;20026;-40
2022/11/16 11:39:06;;;;;;;51.50;27.42;;;8.00;99.90;;;;;;5003045;28;20539;-39
2022/11/16 11:41:43;;;;;;;51.58;27.38;;;8.00;99.90;;;;;;5004591;28;20034;-39
2022/11/16 11:44:19;;;;;;;55.75;27.52;;;8.00;99.90;;;;;;5006059;28;20026;-39
2022/11/16 11:46:59;;;;;;;53.85;29.25;;;8.00;99.90;;;;;;5005843;28;20034;-39
2022/11/16 11:49:30;;;;;;;54.10;28.88;;;8.00;99.90;;;;;;5062969;28;20476;-39
2022/11/16 11:52:01;;;;;;;54.58;27.80;;;8.00;99.90;;;;;;5108324;28;20252;-39
2022/11/16 11:54:33;;;;;;;53.17;27.70;;;8.00;99.90;;;;;;5087822;28;20555;-39
2022/11/16 11:57:01;;;;;;;58.10;28.65;;;8.00;99.90;;;;;;4991895;28;20018;-39
2022/11/16 11:59:27;;;;;;;355.02;196.98;;;8.00;99.90;;;;;;5006249;28;20054;-39
2022/11/16 12:02:05;;;;;;;247.38;134.93;;;8.10;99.90;;;;;;5005406;28;20419;-39
2022/11/16 12:05:07;;;;;;;67.82;34.45;;;8.00;99.90;;;;;;4998821;28;20447;-40
2022/11/16 12:07:32;;;;;;;63.38;33.08;;;8.00;99.90;;;;;;5006659;28;20026;-39
2022/11/16 12:10:06;;;;;;;72.13;35.35;;;8.00;99.90;;;;;;5006213;28;20093;-39
2022/11/16 12:12:53;;;;;;;77.03;36.80;;;8.00;99.90;;;;;;5005970;28;20053;-38
2022/11/16 12:15:50;;;;;;;71.72;37.03;;;8.00;99.90;;;;;;4999367;28;20235;-39
2022/11/16 12:18:37;;;;;;;80.22;39.10;;;8.00;99.90;;;;;;4996846;28;20042;-39
2022/11/16 12:21:09;;;;;;;78.38;38.60;;;8.00;99.90;;;;;;5002921;28;20026;-39
2022/11/16 12:23:43;;;;;;;82.35;38.08;;;8.00;99.90;;;;;;5013819;28;20022;-39
2022/11/16 12:26:58;;;;;;;83.78;40.50;;;8.00;99.90;;;;;;5000096;28;20023;-39
2022/11/16 12:29:45;;;;;;;89.43;38.50;;;8.00;99.90;;;;;;4972681;28;20568;-39
2022/11/16 12:32:28;;;;;;;84.10;39.25;;;7.90;99.90;;;;;;4995420;28;20022;-39
2022/11/16 12:35:08;;;;;;;84.45;38.58;;;7.90;99.90;;;;;;4997760;28;20103;-39
2022/11/16 12:37:54;;;;;;;83.43;36.60;;;7.90;99.90;;;;;;4995260;28;20021;-39
2022/11/16 12:40:38;;;;;;;76.40;36.15;;;7.90;99.90;;;;;;4995954;28;20035;-39
2022/11/16 12:43:29;;;;;;;73.50;34.58;;;7.90;99.90;;;;;;4996051;28;20097;-39
2022/11/16 12:46:21;;;;;;;74.22;34.70;;;7.90;99.90;;;;;;4995139;28;20053;-39
2022/11/16 12:49:16;;;;;;;73.90;34.13;;;7.80;99.90;;;;;;5001246;28;20076;-39
2022/11/16 12:51:51;;;;;;;76.07;35.28;;;7.80;99.90;;;;;;5000809;28;20025;-39
2022/11/16 12:54:32;;;;;;;76.93;36.10;;;7.80;99.90;;;;;;5011393;28;20629;-39
2022/11/16 12:57:03;;;;;;;79.85;35.15;;;7.80;99.90;;;;;;4995809;28;20054;-39
2022/11/16 12:59:54;;;;;;;74.80;35.80;;;7.80;99.90;;;;;;4993861;28;20027;-40
2022/11/16 13:02:47;;;;;;;77.68;33.97;;;7.80;99.90;;;;;;4995672;28;20025;-39
2022/11/16 13:05:41;;;;;;;74.22;34.40;;;7.80;99.90;;;;;;5004549;28;20551;-39
2022/11/16 13:08:18;;;;;;;73.93;33.35;;;7.80;99.90;;;;;;5019404;28;20030;-40
2022/11/16 13:10:47;;;;;;;77.00;34.90;;;7.80;99.90;;;;;;4998447;28;20023;-40
2022/11/16 13:13:22;;;;;;;79.40;35.08;;;7.70;99.90;;;;;;4998091;28;20006;-39
2022/11/16 13:15:49;;;;;;;81.38;35.80;;;7.70;99.90;;;;;;4994789;28;20029;-40
2022/11/16 13:18:18;;;;;;;73.40;34.25;;;7.70;99.90;;;;;;4996101;28;20065;-39
2022/11/16 13:21:09;;;;;;;77.88;34.50;;;7.70;99.90;;;;;;5006773;28;20029;-40
2022/11/16 13:23:47;;;;;;;77.47;33.30;;;7.60;99.90;;;;;;5000053;28;20049;-39
2022/11/16 13:26:46;;;;;;;78.20;33.65;;;7.60;99.90;;;;;;4997986;28;20026;-39
2022/11/16 13:29:31;;;;;;;77.80;33.47;;;7.60;99.90;;;;;;4999369;28;20022;-40
2022/11/16 13:32:15;;;;;;;77.88;34.35;;;7.60;99.90;;;;;;4998564;28;20022;-40
2022/11/16 13:34:41;;;;;;;80.07;33.72;;;7.60;99.90;;;;;;5000064;28;20537;-39
2022/11/16 13:37:35;;;;;;;73.30;32.78;;;7.50;99.90;;;;;;5021013;28;20449;-39
2022/11/16 13:40:00;;;;;;;72.13;31.98;;;7.60;99.90;;;;;;5008089;28;20271;-40
2022/11/16 13:42:28;;;;;;;75.05;33.53;;;7.60;99.90;;;;;;4996910;28;20042;-39
2022/11/16 13:45:05;;;;;;;75.03;33.63;;;7.50;99.90;;;;;;4996840;28;20033;-39
2022/11/16 13:47:31;;;;;;;70.03;31.55;;;7.60;99.90;;;;;;4996788;28;20018;-46
2022/11/16 13:49:59;;;;;;;74.72;33.17;;;7.50;99.90;;;;;;5018914;28;20060;-39
2022/11/16 13:52:44;;;;;;;72.07;31.60;;;7.50;99.90;;;;;;5006242;28;20083;-44